Herbert C Jackson — WL3972 — position and weather

sailwx.info

Track history (hours):
 
Tides and Currents Weather Stations Pressure Air Temp Water Temp Dewpoint Dewpoint Depression Visibility Wind Speed Wind Dir Waves Ship Positions

Herbert C Jackson

Owner: THE INTERLAKE STEAMSHIP COMPANY, Middleburg Heights, OH. More information available from US FCC via Universal Licensing System and Coast Guard Vessel Documentation Center.

Last reported at 2014-Dec-22 14:00 UTC. Time now 2014-Dec-22 15:36 UTC.
Position N 46°36' W 087°24'.

Length 239 m; draft 6.3 m.

Type: Cargo ship. MMSI: 366904930.

Wind from 150 at 13 knots

Barometer 1012.9 mb
Air temperature 2.5 ° C
Water temperature 1.6 ° C

Date/timePositionNaut miles runAvg speedWind from/ knotsBaromVisibWave heightAir tempDewpointWater temp
2014-Dec-22 14:00N 46°36' W 087°24'0 0.0 150 / 131012.9 2.5 1.6
2014-Dec-22 13:00N 46°36' W 087°24'0 0.0 150 / 101013.2 2.5 1.6
2014-Dec-22 12:00N 46°36' W 087°24'0 0.0 150 / 121012.9 2.4 1.6
2014-Dec-22 11:00N 46°36' W 087°24'0 0.0 160 / 91012.9 2.3 1.7
2014-Dec-22 10:00N 46°36' W 087°24'0 0.0 150 / 81012.9 2.3 1.7
2014-Dec-22 09:00N 46°36' W 087°24'0 0.0 180 / 121012.5 2.4 1.7
2014-Dec-22 07:00N 46°36' W 087°24'0 0.0 150 / 121012.5 2.3 1.7
2014-Dec-22 06:00N 46°36' W 087°24'0 0.0 150 / 101012.9 2.2 1.8
2014-Dec-22 05:00N 46°36' W 087°24'0 0.0 150 / 101013.2 2.2 1.8
2014-Dec-22 04:00N 46°36' W 087°24'0 0.0 170 / 121012.9 2.5 1.8
2014-Dec-22 03:00N 46°36' W 087°24'0 0.0 150 / 111013.2 2.4 1.8
2014-Dec-22 02:00N 46°36' W 087°24'0 0.0 150 / 131013.2 2.1 1.8
2014-Dec-22 01:00N 46°36' W 087°24'0 0.0 140 / 111014.2 1.9 1.9
2014-Dec-22 00:00N 46°36' W 087°24'0 0.0 150 / 121014.2 2.2 1.9
2014-Dec-21 23:00N 46°36' W 087°24'0 0.0 170 / 111014.6 2.3 1.9
2014-Dec-21 22:00N 46°36' W 087°24'4 4.1 160 / 131014.6 2.3 2.0
2014-Dec-21 21:00N 46°36' W 087°18'2512.7 160 / 211014.9 1.8 2.6
2014-Dec-21 19:00N 46°42' W 086°42'2512.3 170 / 221016.6 1.5 3.5
2014-Dec-21 17:00N 46°42' W 086°06'1413.7 150 / 211019.3 -0.2 2.6
2014-Dec-21 16:00N 46°48' W 085°48'1616.4 160 / 231020.7 -1.2 2.8
2014-Dec-21 15:00N 46°48' W 085°24'8 8.2 170 / 261021.0 -1.6 2.3
2014-Dec-21 14:00N 46°48' W 085°12'1413.7 170 / 171021.3 -2.3 1.9
2014-Dec-21 13:00N 46°42' W 084°54'614.5 140 / 151022.4 -1.2 2.6
2014-Dec-21 12:34N 46°37' W 084°48'814.7
2014-Dec-21 12:00N 46°30' W 084°42'36 6.2 130 / 151023.0 -2.5 2.4
2014-Dec-21 06:16N 46°08' W 084°01'910.8
2014-Dec-21 05:28N 46°02' W 083°53'2312.0
2014-Dec-21 03:33N 45°46' W 083°29'11812.4
2014-Dec-20 18:00N 44°06' W 082°00'3015.0 320 / 91023.5 -0.2 4.4
2014-Dec-20 16:00N 43°36' W 082°00'1312.8 300 / 111024.5 -0.4 4.2
2014-Dec-20 15:00N 43°24' W 082°06'2211.1 290 / 111025.2 -1.2 3.8
2014-Dec-20 13:00N 43°06' W 082°24'1312.8 300 / 91025.5 -2.8 2.0
2014-Dec-20 12:00N 42°54' W 082°30'6 6.0 320 / 41025.9 -5.2 2.4
2014-Dec-20 11:00N 42°48' W 082°30'1212.0 330 / 31025.9 -2.9 2.7
2014-Dec-20 10:00N 42°36' W 082°30'1110.7 020 / 61025.2 -2.0 3.0
2014-Dec-20 09:00N 42°30' W 082°42'2110.7 250 / 101025.7 -2.4 2.4
2014-Dec-20 07:00N 42°18' W 083°06'0 0.0 340 / 51025.0 -3.6 2.6
2014-Dec-20 06:00N 42°18' W 083°06'4 4.4 230 / 21025.3 -3.9 7.8
2014-Dec-20 05:00N 42°18' W 083°12'0 0.0 340 / 31025.0 -3.3 8.8
2014-Dec-20 04:00N 42°18' W 083°12'0 0.0 050 / 51025.3 -3.4 8.0
2014-Dec-20 02:00N 42°18' W 083°12'0 0.0 320 / 61026.0 -3.0 7.4
2014-Dec-20 01:00N 42°18' W 083°12'0 0.0 260 / 41027.4 -2.4 7.3
2014-Dec-20 00:00N 42°18' W 083°12'4 1.5 260 / 61027.0 -2.5 8.2
2014-Dec-19 21:00N 42°18' W 083°06'4 4.4 190 / 61025.0 -1.1 2.4
2014-Dec-19 20:00N 42°18' W 083°00'1110.7 250 / 31024.3 -1.0 2.4
2014-Dec-19 19:00N 42°24' W 082°48'1110.7 330 / 21024.7 -1.4 2.7
2014-Dec-19 18:00N 42°30' W 082°36'19 9.3 340 / 81024.3 -1.2 3.1
2014-Dec-19 16:00N 42°48' W 082°30'1312.8 300 / 81024.8 -2.1 2.6
2014-Dec-19 15:00N 43°00' W 082°24'1212.0 260 / 91024.8 -2.8 2.6
2014-Dec-19 14:00N 43°12' W 082°24'1212.0 290 / 141024.5 -2.9 2.8
2014-Dec-19 13:00N 43°24' W 082°24'3712.3 280 / 151023.8 -2.9 3.1
2014-Dec-19 10:00N 44°00' W 082°36'1818.0 010 / 121022.8 -1.4 4.2
2014-Dec-19 09:00N 44°18' W 082°36'1312.7 010 / 101022.8 -1.7 4.2
2014-Dec-19 08:00N 44°30' W 082°42'1312.7 020 / 141022.8 -1.9 4.2
2014-Dec-19 07:00N 44°42' W 082°48'4013.3 020 / 131022.5 -2.1 3.9
2014-Dec-19 04:00N 45°18' W 083°12'7 7.3 020 / 141022.8 -2.6 4.0
2014-Dec-19 03:00N 45°24' W 083°18'1317.6 030 / 151022.8 -2.4 3.8
2014-Dec-19 02:16N 45°34' W 083°29'2 7.5
2014-Dec-19 02:00N 45°36' W 083°30'4611.6 030 / 141022.8 -2.7 3.6
2014-Dec-18 22:00N 46°12' W 084°12'6 6.0 330 / 71023.5 -5.6 1.4
2014-Dec-18 21:00N 46°18' W 084°12'1312.7 290 / 91023.2 -4.3 2.1
2014-Dec-18 20:00N 46°30' W 084°18'4 2.1 320 / 81023.2 -3.5 2.2
2014-Dec-18 18:00N 46°30' W 084°24'24 8.1 350 / 71024.0 -5.5 1.9
2014-Dec-18 15:00N 46°48' W 084°48'2110.7 150 / 161025.4 -7.6 2.6
2014-Dec-18 13:00N 46°54' W 085°18'1212.3 020 / 151025.4 -6.2 2.4
2014-Dec-18 12:00N 46°54' W 085°36'2010.2 030 / 201025.1 -5.1 3.9
2014-Dec-18 10:00N 46°54' W 086°06'3712.5 020 / 221024.7 -4.4 3.7
2014-Dec-18 07:00N 46°36' W 086°54'1212.4 010 / 231023.7 -2.4 3.3
2014-Dec-18 06:00N 46°36' W 087°12'8 8.2 360 / 231024.0 -2.4 3.2
2014-Dec-18 05:00N 46°36' W 087°24'0 0.0 290 / 21024.4 -2.3 2.3
2014-Dec-18 04:00N 46°36' W 087°24'0 0.0 320 / 31024.0 -2.2 2.3
2014-Dec-18 02:00N 46°36' W 087°24'0 0.0 070 / 31023.4 -1.8 2.4
2014-Dec-18 01:00N 46°36' W 087°24'0 0.0 040 / 31023.0 -1.9 2.4
2014-Dec-18 00:00N 46°36' W 087°24'0 0.0 300 / 31022.4 -1.9 2.4
2014-Dec-17 23:00N 46°36' W 087°24'0 0.0 310 / 61022.0 -1.9 2.5
2014-Dec-17 22:00N 46°36' W 087°24'0 0.0 300 / 31021.3 -1.8 2.5
2014-Dec-17 21:00N 46°36' W 087°24'0 0.0 340 / 61020.3 -2.1 2.5
2014-Dec-17 20:00N 46°36' W 087°24'0 0.0 300 / 61019.6 -2.0 2.5
2014-Dec-17 19:00N 46°36' W 087°24'0 0.0 010 / 51019.3 -2.0 2.5
2014-Dec-17 18:00N 46°36' W 087°24'0 0.0 020 / 31019.0 -1.8 2.6
2014-Dec-17 17:00N 46°36' W 087°24'0 0.0 300 / 41019.0 -1.9 2.6
2014-Dec-17 16:00N 46°36' W 087°24'0 0.0 350 / 41018.6 -2.0 2.6
2014-Dec-17 15:00N 46°36' W 087°24'0 0.0 320 / 61018.6 -2.1 2.6
2014-Dec-17 14:00N 46°36' W 087°24'0 0.0 290 / 51017.9 -1.9 2.6
2014-Dec-17 13:00N 46°36' W 087°24'0 0.0 320 / 111017.6 -2.3 2.6
2014-Dec-17 12:00N 46°36' W 087°24'0 0.0 310 / 91017.6 -2.4 2.7
2014-Dec-17 11:00N 46°36' W 087°24'0 0.0 320 / 101016.9 -2.5 2.7
2014-Dec-17 10:00N 46°36' W 087°24'0 0.0 320 / 81016.9 -2.5 2.7
2014-Dec-17 09:00N 46°36' W 087°24'0 0.0 310 / 41016.9 -2.0 2.7
2014-Dec-17 08:00N 46°36' W 087°24'0 0.0 010 / 41016.3 -1.7 2.8
2014-Dec-17 07:00N 46°36' W 087°24'0 0.0 320 / 51015.9 -1.5 2.8
2014-Dec-17 06:00N 46°36' W 087°24'0 0.0 320 / 61015.6 -1.2 2.9
2014-Dec-17 05:00N 46°36' W 087°24'0 0.0 320 / 71015.6 -1.1 2.8
2014-Dec-17 04:00N 46°36' W 087°24'0 0.0 310 / 91015.2 -1.3 2.9
2014-Dec-17 03:00N 46°36' W 087°24'0 0.0 320 / 91014.6 -1.0 2.9
2014-Dec-17 02:00N 46°36' W 087°24'0 0.0 330 / 81014.2 -1.0 2.7
2014-Dec-17 01:00N 46°36' W 087°24'0 0.0 320 / 101013.9 -1.0 2.8
2014-Dec-17 00:00N 46°36' W 087°24'0 0.0 350 / 81013.5 -0.8 3.2
2014-Dec-16 23:00N 46°36' W 087°24'0 0.0 350 / 101012.9 -0.8 3.2
2014-Dec-16 22:00N 46°36' W 087°24'0 0.0 350 / 121012.2 -0.6 3.1
2014-Dec-16 21:00N 46°36' W 087°24'0 0.0 350 / 101011.5 -0.5 3.1
2014-Dec-16 19:00N 46°36' W 087°24'0 0.0 350 / 81010.2 -0.2 3.0
2014-Dec-16 18:00N 46°36' W 087°24'0 0.0 010 / 81010.2 -0.0 3.0
2014-Dec-16 17:00N 46°36' W 087°24'0 0.0 350 / 81009.8 0.1 3.0
2014-Dec-15 23:00N 46°36' W 087°24'0 0.0 170 / 61007.8 6.7 2.6
2014-Dec-15 22:00N 46°36' W 087°24'0 0.0 140 / 71007.5 5.8 2.5
2014-Dec-15 21:00N 46°36' W 087°24'6 6.0 170 / 41007.5 7.0 2.4
2014-Dec-15 20:00N 46°30' W 087°24'0 0.0 160 / 131007.5 6.5 2.6
2014-Dec-15 19:00N 46°30' W 087°24'0 0.0 160 / 91007.8 6.8 2.6
2014-Dec-15 18:00N 46°30' W 087°24'0 0.0 170 / 101008.5 6.1 2.6
2014-Dec-15 17:00N 46°30' W 087°24'0 0.0 140 / 111009.5 6.1 2.7
2014-Dec-15 16:00N 46°30' W 087°24'0 0.0 120 / 81009.8 6.0 2.7
2014-Dec-15 15:00N 46°30' W 087°24'0 0.0 120 / 81009.5 5.5 2.7
2014-Dec-15 14:00N 46°30' W 087°24'0 0.0 140 / 101009.5 5.2 2.7
2014-Dec-15 13:00N 46°30' W 087°24'10610.7 190 / 121009.5 5.6 2.7
2014-Dec-15 03:05N 46°40' W 084°50'59 6.9
2014-Dec-14 18:33N 45°56' W 083°53'814.8
2014-Dec-14 18:00N 45°48' W 083°48'1514.6 270 / 151015.0 3.2 3.6
2014-Dec-14 17:00N 45°36' W 083°36'1010.3 270 / 171015.0 3.4 3.9
2014-Dec-14 16:00N 45°30' W 083°24'1312.7 280 / 191015.7 3.4 3.9
2014-Dec-14 15:00N 45°18' W 083°18'1514.7 290 / 181015.7 3.3 3.7
2014-Dec-14 14:00N 45°06' W 083°06'1312.7 280 / 141015.7 2.9 3.2
2014-Dec-14 13:00N 44°54' W 083°00'1312.7 290 / 211015.0 2.9 4.1
2014-Dec-14 12:00N 44°42' W 082°54'1312.7 310 / 161015.0 3.2 4.3
2014-Dec-14 11:00N 44°30' W 082°48'1312.7 290 / 161014.7 4.0 4.3
2014-Dec-14 10:00N 44°18' W 082°42'1312.7 270 / 161014.7 4.2 4.5
2014-Dec-14 09:00N 44°06' W 082°36'1312.8 280 / 151014.3 3.9 3.8
2014-Dec-14 08:00N 43°54' W 082°30'1212.0 280 / 141014.3 3.9 4.4
2014-Dec-14 07:00N 43°42' W 082°30'1212.0 270 / 141014.0 3.9 4.1
2014-Dec-14 06:00N 43°30' W 082°30'1918.5 280 / 171014.0 4.1 2.8
2014-Dec-14 05:00N 43°12' W 082°24'1212.0 280 / 151014.3 4.0 2.8
2014-Dec-14 04:00N 43°00' W 082°24'7 7.4 290 / 161014.7 4.7 3.1
2014-Dec-14 03:00N 42°54' W 082°30'27 9.1 300 / 131015.0 5.2 2.9
2014-Dec-14 00:00N 42°30' W 082°48'46 1.9 260 / 151016.2 5.3 2.2
2014-Dec-13 00:00N 43°12' W 082°24'3015.2 270 / 91022.1 -0.6 3.3
2014-Dec-12 22:00N 43°42' W 082°30'1212.0 280 / 121021.1 -0.0 3.4
2014-Dec-12 21:00N 43°54' W 082°30'1312.8 240 / 121020.8 -0.1 4.2
2014-Dec-12 20:00N 44°06' W 082°36'1312.7 250 / 121020.8 0.3 4.4
2014-Dec-12 19:00N 44°18' W 082°42'5012.4 260 / 91020.8 0.8 4.5
2014-Dec-12 15:00N 45°06' W 083°00'   260 / 131020.4 1.6 3.7
Track history (hours):
 
Tides and Currents Weather Stations Pressure Air Temp Water Temp Dewpoint Dewpoint Depression Visibility Wind Speed Wind Dir Waves Ship Positions

Herbert C Jackson

Owner: THE INTERLAKE STEAMSHIP COMPANY, Middleburg Heights, OH. More information available from US FCC via Universal Licensing System and Coast Guard Vessel Documentation Center.

Last reported at 2014-Dec-22 14:00 UTC. Time now 2014-Dec-22 15:36 UTC.
Position N 46°36' W 087°24'.

Length 239 m; draft 6.3 m.

Type: Cargo ship. MMSI: 366904930.

Wind from 150 at 13 knots

Barometer 1012.9 mb
Air temperature 2.5 ° C
Water temperature 1.6 ° C

Date/timePositionNaut miles runAvg speedWind from/ knotsBaromVisibWave heightAir tempDewpointWater temp
2014-Dec-22 14:00N 46°36' W 087°24'0 0.0 150 / 131012.9 2.5 1.6
2014-Dec-22 13:00N 46°36' W 087°24'0 0.0 150 / 101013.2 2.5 1.6
2014-Dec-22 12:00N 46°36' W 087°24'0 0.0 150 / 121012.9 2.4 1.6
2014-Dec-22 11:00N 46°36' W 087°24'0 0.0 160 / 91012.9 2.3 1.7
2014-Dec-22 10:00N 46°36' W 087°24'0 0.0 150 / 81012.9 2.3 1.7
2014-Dec-22 09:00N 46°36' W 087°24'0 0.0 180 / 121012.5 2.4 1.7
2014-Dec-22 07:00N 46°36' W 087°24'0 0.0 150 / 121012.5 2.3 1.7
2014-Dec-22 06:00N 46°36' W 087°24'0 0.0 150 / 101012.9 2.2 1.8
2014-Dec-22 05:00N 46°36' W 087°24'0 0.0 150 / 101013.2 2.2 1.8
2014-Dec-22 04:00N 46°36' W 087°24'0 0.0 170 / 121012.9 2.5 1.8
2014-Dec-22 03:00N 46°36' W 087°24'0 0.0 150 / 111013.2 2.4 1.8
2014-Dec-22 02:00N 46°36' W 087°24'0 0.0 150 / 131013.2 2.1 1.8
2014-Dec-22 01:00N 46°36' W 087°24'0 0.0 140 / 111014.2 1.9 1.9
2014-Dec-22 00:00N 46°36' W 087°24'0 0.0 150 / 121014.2 2.2 1.9
2014-Dec-21 23:00N 46°36' W 087°24'0 0.0 170 / 111014.6 2.3 1.9
2014-Dec-21 22:00N 46°36' W 087°24'4 4.1 160 / 131014.6 2.3 2.0
2014-Dec-21 21:00N 46°36' W 087°18'2512.7 160 / 211014.9 1.8 2.6
2014-Dec-21 19:00N 46°42' W 086°42'2512.3 170 / 221016.6 1.5 3.5
2014-Dec-21 17:00N 46°42' W 086°06'1413.7 150 / 211019.3 -0.2 2.6
2014-Dec-21 16:00N 46°48' W 085°48'1616.4 160 / 231020.7 -1.2 2.8
2014-Dec-21 15:00N 46°48' W 085°24'8 8.2 170 / 261021.0 -1.6 2.3
2014-Dec-21 14:00N 46°48' W 085°12'1413.7 170 / 171021.3 -2.3 1.9
2014-Dec-21 13:00N 46°42' W 084°54'614.5 140 / 151022.4 -1.2 2.6
2014-Dec-21 12:34N 46°37' W 084°48'814.7
2014-Dec-21 12:00N 46°30' W 084°42'36 6.2 130 / 151023.0 -2.5 2.4
2014-Dec-21 06:16N 46°08' W 084°01'910.8
2014-Dec-21 05:28N 46°02' W 083°53'2312.0
2014-Dec-21 03:33N 45°46' W 083°29'11812.4
2014-Dec-20 18:00N 44°06' W 082°00'3015.0 320 / 91023.5 -0.2 4.4
2014-Dec-20 16:00N 43°36' W 082°00'1312.8 300 / 111024.5 -0.4 4.2
2014-Dec-20 15:00N 43°24' W 082°06'2211.1 290 / 111025.2 -1.2 3.8
2014-Dec-20 13:00N 43°06' W 082°24'1312.8 300 / 91025.5 -2.8 2.0
2014-Dec-20 12:00N 42°54' W 082°30'6 6.0 320 / 41025.9 -5.2 2.4
2014-Dec-20 11:00N 42°48' W 082°30'1212.0 330 / 31025.9 -2.9 2.7
2014-Dec-20 10:00N 42°36' W 082°30'1110.7 020 / 61025.2 -2.0 3.0
2014-Dec-20 09:00N 42°30' W 082°42'2110.7 250 / 101025.7 -2.4 2.4
2014-Dec-20 07:00N 42°18' W 083°06'0 0.0 340 / 51025.0 -3.6 2.6
2014-Dec-20 06:00N 42°18' W 083°06'4 4.4 230 / 21025.3 -3.9 7.8
2014-Dec-20 05:00N 42°18' W 083°12'0 0.0 340 / 31025.0 -3.3 8.8
2014-Dec-20 04:00N 42°18' W 083°12'0 0.0 050 / 51025.3 -3.4 8.0
2014-Dec-20 02:00N 42°18' W 083°12'0 0.0 320 / 61026.0 -3.0 7.4
2014-Dec-20 01:00N 42°18' W 083°12'0 0.0 260 / 41027.4 -2.4 7.3
2014-Dec-20 00:00N 42°18' W 083°12'4 1.5 260 / 61027.0 -2.5 8.2
2014-Dec-19 21:00N 42°18' W 083°06'4 4.4 190 / 61025.0 -1.1 2.4
2014-Dec-19 20:00N 42°18' W 083°00'1110.7 250 / 31024.3 -1.0 2.4
2014-Dec-19 19:00N 42°24' W 082°48'1110.7 330 / 21024.7 -1.4 2.7
2014-Dec-19 18:00N 42°30' W 082°36'19 9.3 340 / 81024.3 -1.2 3.1
2014-Dec-19 16:00N 42°48' W 082°30'1312.8 300 / 81024.8 -2.1 2.6
2014-Dec-19 15:00N 43°00' W 082°24'1212.0 260 / 91024.8 -2.8 2.6
2014-Dec-19 14:00N 43°12' W 082°24'1212.0 290 / 141024.5 -2.9 2.8
2014-Dec-19 13:00N 43°24' W 082°24'3712.3 280 / 151023.8 -2.9 3.1
2014-Dec-19 10:00N 44°00' W 082°36'1818.0 010 / 121022.8 -1.4 4.2
2014-Dec-19 09:00N 44°18' W 082°36'1312.7 010 / 101022.8 -1.7 4.2
2014-Dec-19 08:00N 44°30' W 082°42'1312.7 020 / 141022.8 -1.9 4.2
2014-Dec-19 07:00N 44°42' W 082°48'4013.3 020 / 131022.5 -2.1 3.9
2014-Dec-19 04:00N 45°18' W 083°12'7 7.3 020 / 141022.8 -2.6 4.0
2014-Dec-19 03:00N 45°24' W 083°18'1317.6 030 / 151022.8 -2.4 3.8
2014-Dec-19 02:16N 45°34' W 083°29'2 7.5
2014-Dec-19 02:00N 45°36' W 083°30'4611.6 030 / 141022.8 -2.7 3.6
2014-Dec-18 22:00N 46°12' W 084°12'6 6.0 330 / 71023.5 -5.6 1.4
2014-Dec-18 21:00N 46°18' W 084°12'1312.7 290 / 91023.2 -4.3 2.1
2014-Dec-18 20:00N 46°30' W 084°18'4 2.1 320 / 81023.2 -3.5 2.2
2014-Dec-18 18:00N 46°30' W 084°24'24 8.1 350 / 71024.0 -5.5 1.9
2014-Dec-18 15:00N 46°48' W 084°48'2110.7 150 / 161025.4 -7.6 2.6
2014-Dec-18 13:00N 46°54' W 085°18'1212.3 020 / 151025.4 -6.2 2.4
2014-Dec-18 12:00N 46°54' W 085°36'2010.2 030 / 201025.1 -5.1 3.9
2014-Dec-18 10:00N 46°54' W 086°06'3712.5 020 / 221024.7 -4.4 3.7
2014-Dec-18 07:00N 46°36' W 086°54'1212.4 010 / 231023.7 -2.4 3.3
2014-Dec-18 06:00N 46°36' W 087°12'8 8.2 360 / 231024.0 -2.4 3.2
2014-Dec-18 05:00N 46°36' W 087°24'0 0.0 290 / 21024.4 -2.3 2.3
2014-Dec-18 04:00N 46°36' W 087°24'0 0.0 320 / 31024.0 -2.2 2.3
2014-Dec-18 02:00N 46°36' W 087°24'0 0.0 070 / 31023.4 -1.8 2.4
2014-Dec-18 01:00N 46°36' W 087°24'0 0.0 040 / 31023.0 -1.9 2.4
2014-Dec-18 00:00N 46°36' W 087°24'0 0.0 300 / 31022.4 -1.9 2.4
2014-Dec-17 23:00N 46°36' W 087°24'0 0.0 310 / 61022.0 -1.9 2.5
2014-Dec-17 22:00N 46°36' W 087°24'0 0.0 300 / 31021.3 -1.8 2.5
2014-Dec-17 21:00N 46°36' W 087°24'0 0.0 340 / 61020.3 -2.1 2.5
2014-Dec-17 20:00N 46°36' W 087°24'0 0.0 300 / 61019.6 -2.0 2.5
2014-Dec-17 19:00N 46°36' W 087°24'0 0.0 010 / 51019.3 -2.0 2.5
2014-Dec-17 18:00N 46°36' W 087°24'0 0.0 020 / 31019.0 -1.8 2.6
2014-Dec-17 17:00N 46°36' W 087°24'0 0.0 300 / 41019.0 -1.9 2.6
2014-Dec-17 16:00N 46°36' W 087°24'0 0.0 350 / 41018.6 -2.0 2.6
2014-Dec-17 15:00N 46°36' W 087°24'0 0.0 320 / 61018.6 -2.1 2.6
2014-Dec-17 14:00N 46°36' W 087°24'0 0.0 290 / 51017.9 -1.9 2.6
2014-Dec-17 13:00N 46°36' W 087°24'0 0.0 320 / 111017.6 -2.3 2.6
2014-Dec-17 12:00N 46°36' W 087°24'0 0.0 310 / 91017.6 -2.4 2.7
2014-Dec-17 11:00N 46°36' W 087°24'0 0.0 320 / 101016.9 -2.5 2.7
2014-Dec-17 10:00N 46°36' W 087°24'0 0.0 320 / 81016.9 -2.5 2.7
2014-Dec-17 09:00N 46°36' W 087°24'0 0.0 310 / 41016.9 -2.0 2.7
2014-Dec-17 08:00N 46°36' W 087°24'0 0.0 010 / 41016.3 -1.7 2.8
2014-Dec-17 07:00N 46°36' W 087°24'0 0.0 320 / 51015.9 -1.5 2.8
2014-Dec-17 06:00N 46°36' W 087°24'0 0.0 320 / 61015.6 -1.2 2.9
2014-Dec-17 05:00N 46°36' W 087°24'0 0.0 320 / 71015.6 -1.1 2.8
2014-Dec-17 04:00N 46°36' W 087°24'0 0.0 310 / 91015.2 -1.3 2.9
2014-Dec-17 03:00N 46°36' W 087°24'0 0.0 320 / 91014.6 -1.0 2.9
2014-Dec-17 02:00N 46°36' W 087°24'0 0.0 330 / 81014.2 -1.0 2.7
2014-Dec-17 01:00N 46°36' W 087°24'0 0.0 320 / 101013.9 -1.0 2.8
2014-Dec-17 00:00N 46°36' W 087°24'0 0.0 350 / 81013.5 -0.8 3.2
2014-Dec-16 23:00N 46°36' W 087°24'0 0.0 350 / 101012.9 -0.8 3.2
2014-Dec-16 22:00N 46°36' W 087°24'0 0.0 350 / 121012.2 -0.6 3.1
2014-Dec-16 21:00N 46°36' W 087°24'0 0.0 350 / 101011.5 -0.5 3.1
2014-Dec-16 19:00N 46°36' W 087°24'0 0.0 350 / 81010.2 -0.2 3.0
2014-Dec-16 18:00N 46°36' W 087°24'0 0.0 010 / 81010.2 -0.0 3.0
2014-Dec-16 17:00N 46°36' W 087°24'0 0.0 350 / 81009.8 0.1 3.0
2014-Dec-15 23:00N 46°36' W 087°24'0 0.0 170 / 61007.8 6.7 2.6
2014-Dec-15 22:00N 46°36' W 087°24'0 0.0 140 / 71007.5 5.8 2.5
2014-Dec-15 21:00N 46°36' W 087°24'6 6.0 170 / 41007.5 7.0 2.4
2014-Dec-15 20:00N 46°30' W 087°24'0 0.0 160 / 131007.5 6.5 2.6
2014-Dec-15 19:00N 46°30' W 087°24'0 0.0 160 / 91007.8 6.8 2.6
2014-Dec-15 18:00N 46°30' W 087°24'0 0.0 170 / 101008.5 6.1 2.6
2014-Dec-15 17:00N 46°30' W 087°24'0 0.0 140 / 111009.5 6.1 2.7
2014-Dec-15 16:00N 46°30' W 087°24'0 0.0 120 / 81009.8 6.0 2.7
2014-Dec-15 15:00N 46°30' W 087°24'0 0.0 120 / 81009.5 5.5 2.7
2014-Dec-15 14:00N 46°30' W 087°24'0 0.0 140 / 101009.5 5.2 2.7
2014-Dec-15 13:00N 46°30' W 087°24'10610.7 190 / 121009.5 5.6 2.7
2014-Dec-15 03:05N 46°40' W 084°50'59 6.9
2014-Dec-14 18:33N 45°56' W 083°53'814.8
2014-Dec-14 18:00N 45°48' W 083°48'1514.6 270 / 151015.0 3.2 3.6
2014-Dec-14 17:00N 45°36' W 083°36'1010.3 270 / 171015.0 3.4 3.9
2014-Dec-14 16:00N 45°30' W 083°24'1312.7 280 / 191015.7 3.4 3.9
2014-Dec-14 15:00N 45°18' W 083°18'1514.7 290 / 181015.7 3.3 3.7
2014-Dec-14 14:00N 45°06' W 083°06'1312.7 280 / 141015.7 2.9 3.2
2014-Dec-14 13:00N 44°54' W 083°00'1312.7 290 / 211015.0 2.9 4.1
2014-Dec-14 12:00N 44°42' W 082°54'1312.7 310 / 161015.0 3.2 4.3
2014-Dec-14 11:00N 44°30' W 082°48'1312.7 290 / 161014.7 4.0 4.3
2014-Dec-14 10:00N 44°18' W 082°42'1312.7 270 / 161014.7 4.2 4.5
2014-Dec-14 09:00N 44°06' W 082°36'1312.8 280 / 151014.3 3.9 3.8
2014-Dec-14 08:00N 43°54' W 082°30'1212.0 280 / 141014.3 3.9 4.4
2014-Dec-14 07:00N 43°42' W 082°30'1212.0 270 / 141014.0 3.9 4.1
2014-Dec-14 06:00N 43°30' W 082°30'1918.5 280 / 171014.0 4.1 2.8
2014-Dec-14 05:00N 43°12' W 082°24'1212.0 280 / 151014.3 4.0 2.8
2014-Dec-14 04:00N 43°00' W 082°24'7 7.4 290 / 161014.7 4.7 3.1
2014-Dec-14 03:00N 42°54' W 082°30'27 9.1 300 / 131015.0 5.2 2.9
2014-Dec-14 00:00N 42°30' W 082°48'46 1.9 260 / 151016.2 5.3 2.2
2014-Dec-13 00:00N 43°12' W 082°24'3015.2 270 / 91022.1 -0.6 3.3
2014-Dec-12 22:00N 43°42' W 082°30'1212.0 280 / 121021.1 -0.0 3.4
2014-Dec-12 21:00N 43°54' W 082°30'1312.8 240 / 121020.8 -0.1 4.2
2014-Dec-12 20:00N 44°06' W 082°36'1312.7 250 / 121020.8 0.3 4.4
2014-Dec-12 19:00N 44°18' W 082°42'5012.4 260 / 91020.8 0.8 4.5
2014-Dec-12 15:00N 45°06' W 083°00'   260 / 131020.4 1.6 3.7

Dump ship's entire track history